Главная страница
METAR-TAF:

METAR-TAF

Аэропорты :

Лаксэльв, Норвегия

широта: 70-04N, долгота: 024-59E, высота над уровнем моря: 0 м

Текущие метеонаблюдения

Эта сводка был подготовлена 40 минут назад, в 15:50 UTC
Ветер 10 Узел от северо-восточный
Температура 12°C
Влажность 67%
Давление 1014 hPa
Видимость 10 км и более

METAR: ENNA 221550Z AUTO 04010KT 9999 OVC036/// 12/06 Q1014 RMK WIND 1800FT VRB03KT

Время: 18:30 (16:30 UTC)

Прогноз

Эта сводка был подготовлена 5 часа и 30 минут назад, в 11:00 UTC
Прогноз действительный с 22-го 12 UTC до 23-го 12 UTC
Ветер 15 Узел от северный
Видимость 10 км и более
небольшая облачность на высоте 1500 фута
Рассеянная облачность на высоте 2500 фута
изменения
С 22-го 15 UTC до 22-го 18 UTC
Ветер 5 Узел от северный

TAF: ENNA 221100Z 2212/2312 35015KT 9999 FEW015 BKN025 BECMG 2215/2218 01005KT

Метеонаблюдения и прогнозы для более 4000 аэропортов (сводки METAR и TAF).

Имеющиеся станции представлены на карте желтыми и красными точками.

Чтобы увидеть название станции, наведите на нее мышь.

Затем щелкните, чтобы увидеть метеонаблюдения и метеопрогнозы.

Управление картой: чтобы увеличить масштаб, щелкните зеленые кнопки с черным крестиком; чтобы уменьшить масштаб, щелкните зеленую кнопку с тире; для просмотра соседних карт щелкайте зеленые стрелки.


METAR-TAF: